Time;durP1;ratioP1;P1;durP2;ratioP2;P2;SDS_P1;SDS_P2;PMS_P1;PMS_P2;Temp;Humidity;BMP_temperature;BMP_pressure;BME280_temperature;BME280_humidity;BME280_pressure;Samples;Min_cycle;Max_cycle;Signal;HPM_P1;HPM_P2
2022/06/17 00:02:25;;;;;;;2.40;1.02;;;;;;;23.21;39.52;99100.84;5033463;28;20033;-75
2022/06/17 00:04:50;;;;;;;2.47;0.90;;;;;;;23.22;39.39;99110.47;5017327;28;20040;-75
2022/06/17 00:07:16;;;;;;;2.10;0.90;;;;;;;23.18;39.48;99103.88;5033188;28;20052;-75
2022/06/17 00:09:42;;;;;;;2.58;0.80;;;;;;;23.16;39.55;99109.38;5050340;28;20384;-74
2022/06/17 00:12:10;;;;;;;1.83;0.90;;;;;;;23.13;39.49;99104.44;5033695;28;20377;-74
2022/06/17 00:15:11;;;;;;;1.88;1.10;;;;;;;23.11;39.82;99101.16;5049725;28;20034;-75
2022/06/17 00:17:21;;;;;;;3.92;1.10;;;;;;;23.07;39.85;99106.00;5049887;28;20037;-75
2022/06/17 00:19:47;;;;;;;3.40;1.05;;;;;;;23.00;39.68;99102.44;5051402;28;20107;-75
2022/06/17 00:22:12;;;;;;;1.77;1.00;;;;;;;22.99;39.58;99105.28;5018151;28;20052;-75
2022/06/17 00:24:38;;;;;;;4.22;1.02;;;;;;;22.98;40.15;99108.94;5037415;28;20454;-74
2022/06/17 00:27:04;;;;;;;2.92;0.90;;;;;;;22.95;39.60;99108.31;5053836;28;20411;-75
2022/06/17 00:29:29;;;;;;;4.10;1.20;;;;;;;22.95;39.58;99113.66;5037403;28;20044;-75
2022/06/17 00:31:55;;;;;;;3.55;0.82;;;;;;;22.93;39.73;99107.69;5037378;28;20451;-76
2022/06/17 00:34:23;;;;;;;6.05;1.00;;;;;;;22.89;39.79;99094.94;5037407;28;20116;-74
2022/06/17 00:36:48;;;;;;;1.42;1.00;;;;;;;22.92;39.59;99099.91;5037365;28;20098;-74
2022/06/17 00:39:19;;;;;;;2.00;1.00;;;;;;;22.88;39.86;99086.16;5054887;28;20067;-74
2022/06/17 00:41:48;;;;;;;2.28;1.10;;;;;;;22.91;40.07;99085.78;5037481;28;20100;-74
2022/06/17 00:44:21;;;;;;;3.45;1.00;;;;;;;22.91;39.95;99082.25;5021141;28;20090;-74
2022/06/17 00:46:55;;;;;;;4.00;1.00;;;;;;;22.88;40.03;99080.81;5054005;28;20055;-75
2022/06/17 00:49:42;;;;;;;1.45;0.90;;;;;;;22.89;39.76;99087.78;5020927;28;20029;-75
2022/06/17 00:52:19;;;;;;;4.28;1.10;;;;;;;22.88;39.79;99082.63;5034748;28;20029;-75
2022/06/17 00:55:16;;;;;;;2.10;0.95;;;;;;;22.84;40.21;99084.88;5017523;28;20073;-74
2022/06/17 00:57:42;;;;;;;2.80;1.10;;;;;;;22.78;39.99;99082.94;5016001;28;20192;-76
2022/06/17 01:00:07;;;;;;;6.57;0.95;;;;;;;22.77;40.20;99075.97;4999868;28;20492;-74
2022/06/17 01:02:38;;;;;;;2.90;0.90;;;;;;;22.75;40.20;99070.00;5015366;28;20046;-74
2022/06/17 01:05:04;;;;;;;2.95;1.00;;;;;;;22.75;40.15;99072.69;4983587;28;20041;-75
2022/06/17 01:07:34;;;;;;;4.40;1.00;;;;;;;22.70;40.36;99070.56;5015753;28;20033;-73
2022/06/17 01:10:08;;;;;;;3.13;0.98;;;;;;;22.68;40.51;99077.13;5016488;28;20041;-74
2022/06/17 01:12:37;;;;;;;1.52;0.80;;;;;;;22.65;40.39;99066.84;4985395;28;20052;-74
2022/06/17 01:15:03;;;;;;;6.57;1.00;;;;;;;22.65;40.23;99074.81;4983266;28;20040;-75
2022/06/17 01:17:29;;;;;;;4.75;1.20;;;;;;;22.62;40.02;99067.22;4999044;28;20033;-75
2022/06/17 01:19:58;;;;;;;2.90;1.10;;;;;;;22.62;40.33;99067.22;4999588;28;20397;-74
2022/06/17 01:22:26;;;;;;;2.47;1.02;;;;;;;22.63;40.14;99068.84;5014559;28;20076;-76
2022/06/17 01:25:20;;;;;;;3.15;0.90;;;;;;;22.63;40.22;99059.06;5032323;28;20033;-75
2022/06/17 01:27:50;;;;;;;5.60;1.00;;;;;;;22.62;40.13;99062.72;5032128;28;20044;-74
2022/06/17 01:30:26;;;;;;;3.35;1.00;;;;;;;22.61;40.33;99058.38;4999520;28;20037;-75
2022/06/17 01:33:00;;;;;;;2.35;0.90;;;;;;;22.62;40.28;99061.91;4999688;28;20477;-75
2022/06/17 01:35:28;;;;;;;2.55;0.88;;;;;;;22.61;40.47;99062.91;5029590;28;20069;-75
2022/06/17 01:37:53;;;;;;;1.67;0.70;;;;;;;22.57;40.11;99049.16;5032725;28;20554;-76
2022/06/17 01:40:19;;;;;;;3.42;0.80;;;;;;;22.54;40.43;99046.88;5032869;28;20033;-74
2022/06/17 01:42:45;;;;;;;2.55;0.93;;;;;;;22.53;40.25;99051.38;5015939;28;20084;-74
2022/06/17 01:45:10;;;;;;;3.85;0.98;;;;;;;22.47;40.42;99049.44;5016343;28;20036;-76
2022/06/17 01:47:36;;;;;;;2.00;1.00;;;;;;;22.47;40.30;99057.44;5032913;28;20114;-75
2022/06/17 01:50:08;;;;;;;3.53;1.10;;;;;;;22.47;40.53;99048.59;5032664;28;20457;-75
2022/06/17 01:52:37;;;;;;;2.50;1.02;;;;;;;22.45;40.36;99043.47;5051556;28;20411;-75
2022/06/17 01:55:41;;;;;;;2.85;1.10;;;;;;;22.41;40.31;99039.56;5052574;28;20111;-74
2022/06/17 01:58:13;;;;;;;2.47;1.02;;;;;;;22.36;40.42;99034.78;5021856;28;20120;-75
2022/06/17 02:00:41;;;;;;;4.57;1.05;;;;;;;22.37;40.39;99033.75;5051972;28;20029;-75
2022/06/17 02:03:10;;;;;;;2.35;0.95;;;;;;;22.34;40.25;99034.13;5036321;28;20035;-75
2022/06/17 02:05:36;;;;;;;4.20;1.13;;;;;;;22.35;40.28;99035.78;5035670;28;20044;-75
2022/06/17 02:08:02;;;;;;;2.38;0.90;;;;;;;22.33;40.24;99023.69;5036007;28;20032;-75
2022/06/17 02:10:36;;;;;;;2.13;0.95;;;;;;;22.35;40.62;99024.34;5035525;28;20029;-77
2022/06/17 02:13:03;;;;;;;6.03;1.10;;;;;;;22.34;40.54;99020.84;5035693;28;20064;-75
2022/06/17 02:15:29;;;;;;;4.75;1.00;;;;;;;22.35;40.44;99016.34;5052142;28;20029;-75
2022/06/17 02:17:54;;;;;;;1.70;0.90;;;;;;;22.34;40.29;99020.84;5051885;28;20443;-74
2022/06/17 02:20:20;;;;;;;1.58;0.90;;;;;;;22.36;40.46;99026.81;5019400;28;20033;-75
2022/06/17 02:22:45;;;;;;;2.97;1.00;;;;;;;22.36;40.42;99029.47;5034527;28;20048;-75
2022/06/17 02:25:20;;;;;;;2.22;1.10;;;;;;;22.33;40.27;99032.50;5018614;28;20033;-75
2022/06/17 02:27:45;;;;;;;2.40;1.08;;;;;;;22.29;40.56;99025.88;5018546;28;20021;-75
2022/06/17 02:30:11;;;;;;;1.48;0.98;;;;;;;22.28;40.45;99034.88;5035582;28;20067;-74
2022/06/17 02:32:37;;;;;;;4.25;0.90;;;;;;;22.26;40.74;99034.22;5018493;28;20040;-75
2022/06/17 02:35:23;;;;;;;4.50;1.00;;;;;;;22.24;40.81;99033.59;5035360;28;20040;-75
2022/06/17 02:37:51;;;;;;;1.20;0.90;;;;;;;22.23;40.66;99039.91;5037695;28;20032;-74
2022/06/17 02:40:30;;;;;;;4.05;0.90;;;;;;;22.17;40.78;99028.19;5018759;28;20045;-75
2022/06/17 02:42:55;;;;;;;2.50;0.93;;;;;;;22.20;40.88;99037.59;5034468;28;20071;-73
2022/06/17 02:45:23;;;;;;;2.60;1.00;;;;;;;22.16;40.68;99037.16;5034289;28;20068;-74
2022/06/17 02:47:48;;;;;;;2.25;1.10;;;;;;;22.19;40.77;99038.63;5018229;28;20040;-74
2022/06/17 02:50:16;;;;;;;1.38;0.90;;;;;;;22.20;40.62;99038.44;5051537;28;20037;-74
2022/06/17 02:52:42;;;;;;;1.35;0.80;;;;;;;22.21;40.49;99032.09;5050963;28;20036;-74
2022/06/17 02:55:25;;;;;;;1.42;0.98;;;;;;;22.23;40.40;99034.56;5034755;28;20044;-74
2022/06/17 02:57:51;;;;;;;1.20;0.88;;;;;;;22.31;40.59;99031.03;5035431;28;20041;-74
2022/06/17 03:00:20;;;;;;;2.13;0.90;;;;;;;22.49;40.12;99041.28;5035146;28;20025;-76
2022/06/17 03:02:48;;;;;;;2.97;1.10;;;;;;;22.90;39.27;99030.88;5034218;28;20037;-74
2022/06/17 03:05:28;;;;;;;2.47;1.00;;;;;;;23.37;38.25;99033.16;5034506;28;20068;-76
2022/06/17 03:07:55;;;;;;;2.85;1.00;;;;;;;23.85;37.28;99036.00;5035300;28;20033;-74
2022/06/17 03:10:40;;;;;;;2.70;0.98;;;;;;;24.31;36.68;99023.91;5034819;28;20032;-74
2022/06/17 03:13:14;;;;;;;3.22;0.98;;;;;;;24.81;35.33;99031.69;5017881;28;20585;-74
2022/06/17 03:15:41;;;;;;;1.63;0.90;;;;;;;25.25;34.25;99027.63;5035197;28;20033;-75
2022/06/17 03:18:06;;;;;;;2.40;1.27;;;;;;;25.69;33.77;99031.53;5034216;28;20174;-75
2022/06/17 03:20:35;;;;;;;3.83;1.17;;;;;;;26.12;32.54;99035.56;5017777;28;20127;-75
2022/06/17 03:23:06;;;;;;;2.38;1.10;;;;;;;26.61;31.65;99031.44;5018044;28;20124;-75
2022/06/17 03:25:48;;;;;;;1.83;1.02;;;;;;;27.02;31.20;99032.06;5014633;28;20072;-76
2022/06/17 03:28:16;;;;;;;3.47;1.20;;;;;;;27.46;30.47;99034.84;5014407;28;20037;-74
2022/06/17 03:30:47;;;;;;;4.07;1.42;;;;;;;27.88;29.51;99035.03;4998435;28;20041;-74
2022/06/17 03:33:20;;;;;;;4.95;1.30;;;;;;;28.31;29.02;99037.69;5030972;28;20041;-74
2022/06/17 03:35:47;;;;;;;2.45;1.17;;;;;;;28.69;28.40;99043.84;5014564;28;20025;-74
2022/06/17 03:38:12;;;;;;;1.85;0.90;;;;;;;29.10;27.55;99049.44;5014418;28;20029;-74
2022/06/17 03:40:41;;;;;;;2.33;1.10;;;;;;;29.42;27.24;99041.91;5032469;28;20096;-75
2022/06/17 03:43:15;;;;;;;2.75;1.10;;;;;;;29.87;26.79;99041.38;4999559;28;20488;-74
2022/06/17 03:45:47;;;;;;;2.70;1.10;;;;;;;30.26;26.00;99036.25;5032606;28;20126;-74
2022/06/17 03:48:25;;;;;;;3.08;1.23;;;;;;;30.63;25.34;99043.16;5015092;28;20038;-74
2022/06/17 03:50:50;;;;;;;3.83;1.20;;;;;;;30.99;24.60;99033.88;5031508;28;20029;-74
2022/06/17 03:53:28;;;;;;;3.25;1.00;;;;;;;31.43;24.14;99043.19;5031217;28;20025;-76
2022/06/17 03:55:56;;;;;;;1.90;1.00;;;;;;;31.74;24.10;99052.59;5030687;28;20038;-74
2022/06/17 03:58:21;;;;;;;4.68;1.10;;;;;;;32.15;23.41;99038.84;5014718;28;20041;-74
2022/06/17 04:00:59;;;;;;;3.40;1.25;;;;;;;32.52;22.95;99041.69;5014950;28;20167;-74
2022/06/17 04:03:26;;;;;;;3.97;1.13;;;;;;;32.87;22.49;99040.47;5030895;28;20468;-74
2022/06/17 04:05:58;;;;;;;4.07;1.20;;;;;;;33.25;21.84;99051.38;4998529;28;20411;-74
2022/06/17 04:08:24;;;;;;;1.67;0.88;;;;;;;33.60;21.91;99048.09;5030992;28;20030;-75
2022/06/17 04:10:49;;;;;;;1.60;0.95;;;;;;;33.95;21.80;99054.81;5032246;28;20504;-75
2022/06/17 04:13:19;;;;;;;3.75;1.20;;;;;;;34.29;21.06;99053.66;5014292;28;20088;-75
2022/06/17 04:15:52;;;;;;;1.95;0.93;;;;;;;34.67;21.40;99054.28;5014769;28;20095;-75
2022/06/17 04:18:18;;;;;;;4.53;0.90;;;;;;;34.99;20.77;99051.38;5014960;28;20038;-75
2022/06/17 04:20:52;;;;;;;2.40;1.00;;;;;;;35.33;20.16;99045.44;5032198;28;20377;-75
2022/06/17 04:23:29;;;;;;;4.00;0.88;;;;;;;35.67;19.83;99045.63;5030603;28;20060;-73
2022/06/17 04:26:29;;;;;;;1.65;0.80;;;;;;;36.00;19.16;99045.31;5042768;28;20527;-74
2022/06/17 04:29:01;;;;;;;8.50;1.00;;;;;;;36.50;19.26;99043.47;5050201;28;20645;-74
2022/06/17 04:31:28;;;;;;;7.53;1.40;;;;;;;37.09;18.69;99044.44;5035785;28;20053;-75
2022/06/17 04:34:13;;;;;;;10.73;1.60;;;;;;;37.61;18.37;99047.50;5019950;28;20127;-73
2022/06/17 04:36:44;;;;;;;4.75;1.60;;;;;;;38.24;17.52;99045.75;5019397;28;20033;-75
2022/06/17 04:39:32;;;;;;;5.28;1.00;;;;;;;38.83;17.20;99040.84;5033406;28;20072;-74
2022/06/17 04:42:00;;;;;;;9.73;1.38;;;;;;;39.45;16.87;99050.75;5001191;28;20036;-74
2022/06/17 04:44:26;;;;;;;6.93;1.08;;;;;;;39.94;16.56;99045.75;5033540;28;20069;-74
2022/06/17 04:46:53;;;;;;;4.60;0.90;;;;;;;40.35;15.78;99042.16;5049698;28;20492;-75
2022/06/17 04:49:21;;;;;;;4.78;1.10;;;;;;;40.82;15.35;99031.81;5032925;28;20025;-74
2022/06/17 04:51:47;;;;;;;11.73;1.27;;;;;;;41.22;15.25;99031.13;5049674;28;20583;-80
2022/06/17 04:54:13;;;;;;;7.80;1.10;;;;;;;41.65;14.78;99043.44;5016933;28;20037;-75
2022/06/17 04:56:45;;;;;;;10.77;1.00;;;;;;;42.05;14.58;99037.91;5016390;28;20574;-76
2022/06/17 04:59:22;;;;;;;5.53;1.15;;;;;;;42.47;14.07;99032.84;5049772;28;20040;-79
2022/06/17 05:01:49;;;;;;;23.15;4.10;;;;;;;42.76;14.60;99031.41;5034342;28;20028;-75
2022/06/17 05:04:15;;;;;;;;;;;;;;;42.96;14.67;99035.44;5034150;28;20033;-74
2022/06/17 05:06:42;;;;;;;16.80;2.87;;;;;;;43.38;14.57;99041.19;5050609;28;20011;-73
2022/06/17 05:09:27;;;;;;;11.57;2.42;;;;;;;43.77;13.96;99038.44;5037267;28;20498;-75
2022/06/17 05:11:56;;;;;;;10.77;2.10;;;;;;;44.15;13.58;99041.13;5053513;28;20076;-81
2022/06/17 05:14:42;;;;;;;11.20;1.83;;;;;;;44.53;13.26;99051.22;5020383;28;20045;-77
2022/06/17 05:17:08;;;;;;;5.53;1.48;;;;;;;44.88;12.77;99047.41;5035230;28;20098;-77
2022/06/17 05:19:33;;;;;;;6.17;1.40;;;;;;;45.23;13.00;99047.88;5050336;28;20459;-78
2022/06/17 05:22:00;;;;;;;5.47;1.53;;;;;;;45.45;12.42;99038.41;5052183;28;20115;-77
2022/06/17 05:24:27;;;;;;;10.98;1.50;;;;;;;45.72;12.14;99038.84;5036340;28;20033;-77
2022/06/17 05:26:52;;;;;;;5.18;1.10;;;;;;;45.99;11.62;99040.16;5020369;28;20029;-77
2022/06/17 05:29:21;;;;;;;7.10;1.27;;;;;;;46.17;11.86;99045.44;5053092;28;20048;-77
2022/06/17 05:31:49;;;;;;;11.23;1.30;;;;;;;46.43;11.48;99035.91;5053303;28;20037;-78
2022/06/17 05:34:15;;;;;;;7.03;1.30;;;;;;;46.64;11.84;99049.56;5036725;28;20029;-77
2022/06/17 05:36:40;;;;;;;2.97;0.97;;;;;;;46.84;11.68;99040.25;5053376;28;20048;-77
2022/06/17 05:39:06;;;;;;;4.07;0.90;;;;;;;46.96;10.95;99039.44;5053389;28;20028;-77
2022/06/17 05:41:31;;;;;;;3.37;0.80;;;;;;;47.10;11.19;99030.72;5053248;28;20086;-77
2022/06/17 05:43:57;;;;;;;6.50;0.83;;;;;;;47.23;10.86;99031.44;5052721;28;20032;-78
2022/06/17 05:46:22;;;;;;;2.37;1.00;;;;;;;47.28;10.27;99029.19;5019546;28;20056;-78
2022/06/17 05:48:48;;;;;;;3.20;1.00;;;;;;;47.37;10.51;99031.03;5053605;28;20045;-78
2022/06/17 05:51:13;;;;;;;4.50;1.10;;;;;;;47.38;10.34;99027.09;5053271;28;20095;-77
2022/06/17 05:53:39;;;;;;;3.77;1.17;;;;;;;47.39;10.31;99023.19;5054691;28;20033;-77
2022/06/17 05:56:05;;;;;;;4.87;0.93;;;;;;;47.37;10.06;99020.75;5019932;28;20420;-77
2022/06/17 05:58:30;;;;;;;5.30;1.10;;;;;;;47.40;9.96;99025.59;5055041;28;20035;-78
2022/06/17 06:00:56;;;;;;;3.53;1.03;;;;;;;47.38;9.63;99019.63;5036735;28;20032;-78
2022/06/17 06:03:26;;;;;;;2.70;1.13;;;;;;;47.31;10.10;99015.88;5020872;28;20045;-78
2022/06/17 06:05:51;;;;;;;3.50;1.20;;;;;;;47.27;9.46;99027.59;5053586;28;20060;-77
2022/06/17 06:08:17;;;;;;;9.00;1.30;;;;;;;47.12;9.40;99022.88;5054346;28;20060;-78
2022/06/17 06:10:43;;;;;;;7.13;1.60;;;;;;;47.08;9.14;99021.97;5053293;28;20151;-78
2022/06/17 06:13:16;;;;;;;6.78;1.70;;;;;;;46.94;9.18;99011.38;5036688;28;20025;-77
2022/06/17 06:15:43;;;;;;;7.03;1.88;;;;;;;46.93;9.67;99016.06;5037241;28;20037;-78
2022/06/17 06:18:13;;;;;;;7.13;2.03;;;;;;;46.87;9.87;99016.66;5054459;28;20021;-77
2022/06/17 06:20:38;;;;;;;9.55;2.00;;;;;;;46.86;9.84;99009.53;5036029;28;20032;-78
2022/06/17 06:23:04;;;;;;;9.63;1.90;;;;;;;46.81;9.84;99004.25;5053017;28;20473;-76
2022/06/17 06:25:30;;;;;;;6.03;1.90;;;;;;;46.78;9.91;99002.22;5054419;28;20032;-77
2022/06/17 06:27:55;;;;;;;6.65;1.42;;;;;;;46.67;9.18;99001.91;5053832;28;20040;-77
2022/06/17 06:30:25;;;;;;;10.07;1.50;;;;;;;46.53;9.22;98994.81;5054460;28;20036;-77
2022/06/17 06:32:56;;;;;;;8.50;1.60;;;;;;;46.45;9.77;99000.47;5053020;28;20068;-77
2022/06/17 06:35:23;;;;;;;4.05;1.20;;;;;;;46.45;9.52;98997.72;5053210;28;20446;-77
2022/06/17 06:37:49;;;;;;;4.38;1.30;;;;;;;46.37;9.47;98992.03;5036631;28;20365;-77
2022/06/17 06:40:14;;;;;;;6.23;1.33;;;;;;;46.31;9.62;98998.94;5036324;28;20052;-76
2022/06/17 06:42:40;;;;;;;5.03;1.10;;;;;;;46.26;8.95;98990.09;5052922;28;20028;-78
2022/06/17 06:45:06;;;;;;;10.53;1.10;;;;;;;46.20;9.16;98990.34;5052577;28;20511;-77
2022/06/17 06:47:32;;;;;;;3.95;1.10;;;;;;;46.12;8.75;98977.47;5053751;28;20036;-80
2022/06/17 06:49:57;;;;;;;5.93;0.97;;;;;;;46.07;8.81;98988.75;5035687;28;20033;-77
2022/06/17 06:52:23;;;;;;;3.17;0.97;;;;;;;45.90;8.60;98981.53;5053768;28;20132;-81
2022/06/17 06:54:50;;;;;;;3.90;1.00;;;;;;;45.82;9.17;98975.00;5053102;28;20163;-80
2022/06/17 06:57:16;;;;;;;;;;;;;;;45.62;9.02;98985.00;5036172;28;20476;-81
2022/06/17 06:59:41;;;;;;;3.15;1.02;;;;;;;45.45;9.61;98971.44;5035742;28;19933;-78
2022/06/17 07:02:08;;;;;;;5.83;1.13;;;;;;;45.32;9.54;98973.38;5052370;28;20037;-79
2022/06/17 07:04:34;;;;;;;;;;;;;;;45.07;9.70;98964.28;5052754;28;20068;-79
2022/06/17 07:06:59;;;;;;;2.37;1.00;;;;;;;44.95;9.92;98971.34;5053437;28;19947;-78
2022/06/17 07:09:25;;;;;;;3.97;0.87;;;;;;;44.83;9.82;98967.78;5035388;28;20060;-78
2022/06/17 07:11:51;;;;;;;1.83;0.70;;;;;;;44.67;9.94;98959.34;5053304;28;20036;-79
2022/06/17 07:14:17;;;;;;;2.83;0.88;;;;;;;44.54;9.83;98961.25;5052277;28;20031;-79
2022/06/17 07:16:42;;;;;;;3.47;0.80;;;;;;;44.39;9.97;98957.16;5035701;28;20136;-77
2022/06/17 07:19:10;;;;;;;3.17;0.63;;;;;;;44.27;10.58;98966.16;5035761;28;20504;-77
2022/06/17 07:21:35;;;;;;;5.28;1.08;;;;;;;44.05;10.57;98953.53;5051620;28;20476;-78
2022/06/17 07:24:01;;;;;;;6.93;0.90;;;;;;;43.93;10.63;98954.25;5035526;28;20040;-80
2022/06/17 07:26:27;;;;;;;2.40;0.80;;;;;;;43.82;11.41;98951.09;5035054;28;20032;-79
2022/06/17 07:28:54;;;;;;;4.07;0.88;;;;;;;43.73;11.18;98950.34;5035050;28;20025;-78
2022/06/17 07:31:20;;;;;;;3.97;0.80;;;;;;;43.61;11.02;98945.53;5052866;28;20033;-79
2022/06/17 07:33:46;;;;;;;1.98;0.90;;;;;;;43.52;10.45;98942.03;5052871;28;20119;-79
2022/06/17 07:39:53;;;;;;;7.30;0.80;;;;;;;43.33;10.78;98937.75;5052793;28;20124;-78
2022/06/17 07:41:50;;;;;;;2.30;0.75;;;;;;;43.04;10.85;98930.28;5051773;28;20464;-79
2022/06/17 07:44:17;;;;;;;2.08;0.80;;;;;;;42.92;11.02;98924.63;5052605;28;20086;-78
2022/06/17 07:46:43;;;;;;;3.35;0.70;;;;;;;42.69;11.00;98919.38;5051401;28;20021;-78
2022/06/17 07:49:09;;;;;;;2.47;0.85;;;;;;;42.56;10.60;98921.19;5034681;28;20099;-77
2022/06/17 07:51:35;;;;;;;3.55;1.05;;;;;;;42.33;10.73;98928.75;5018577;28;20040;-78
2022/06/17 07:54:01;;;;;;;2.42;0.70;;;;;;;42.19;11.07;98917.16;5034665;28;20036;-79
2022/06/17 07:56:28;;;;;;;1.53;0.93;;;;;;;42.03;11.32;98931.31;5052610;28;20060;-79
2022/06/17 07:58:53;;;;;;;4.82;0.88;;;;;;;41.71;10.84;98925.16;5051299;28;20055;-78
2022/06/17 08:01:19;;;;;;;1.98;0.70;;;;;;;41.63;11.01;98916.91;5052250;28;20476;-79
2022/06/17 08:03:44;;;;;;;2.70;0.68;;;;;;;41.49;11.08;98923.31;5035226;28;20124;-79
2022/06/17 08:06:11;;;;;;;3.55;0.80;;;;;;;41.34;10.79;98924.56;5051259;28;20326;-79
2022/06/17 08:08:39;;;;;;;;;;;;;;;41.23;11.16;98925.94;5018740;28;20116;-78
2022/06/17 08:11:08;;;;;;;2.38;0.65;;;;;;;41.14;10.89;98936.06;5050885;28;19909;-80
2022/06/17 08:13:33;;;;;;;4.32;0.82;;;;;;;40.98;10.74;98922.78;5051569;28;20033;-78
2022/06/17 08:16:01;;;;;;;3.65;0.70;;;;;;;40.76;10.44;98926.34;5051141;28;20063;-78
2022/06/17 08:18:26;;;;;;;2.50;0.80;;;;;;;40.66;11.22;98927.41;5051127;28;20025;-78
2022/06/17 08:20:52;;;;;;;2.45;0.80;;;;;;;40.61;11.33;98929.44;5051144;28;20108;-78
2022/06/17 08:23:17;;;;;;;2.78;0.85;;;;;;;40.57;11.65;98933.94;5050954;28;20136;-78
2022/06/17 08:25:43;;;;;;;3.00;0.60;;;;;;;40.50;11.08;98926.16;5030631;28;20132;-77
2022/06/17 08:28:10;;;;;;;2.58;0.70;;;;;;;40.41;11.88;98926.09;4998427;28;20492;-79
2022/06/17 08:30:41;;;;;;;4.80;0.70;;;;;;;40.22;11.03;98923.53;5014683;28;20542;-77
2022/06/17 08:33:07;;;;;;;1.50;0.65;;;;;;;39.83;11.64;98929.56;5032624;28;20095;-78
2022/06/17 08:35:35;;;;;;;2.00;0.80;;;;;;;39.82;11.90;98925.22;5014632;28;20045;-79
2022/06/17 08:38:06;;;;;;;3.83;0.88;;;;;;;39.73;12.13;98923.22;5014820;28;20117;-78
2022/06/17 08:40:55;;;;;;;3.05;0.80;;;;;;;39.66;12.60;98922.00;4998530;28;20055;-81
2022/06/17 08:43:30;;;;;;;3.63;0.98;;;;;;;39.64;12.75;98929.72;5033088;28;20030;-77
2022/06/17 08:46:31;;;;;;;8.80;3.50;;;;;;;39.48;16.74;98924.53;5035822;28;20473;-78
2022/06/17 08:49:22;;;;;;;8.88;2.85;;;;;;;38.97;16.36;98926.28;5034889;28;20041;-78
2022/06/17 08:52:12;;;;;;;6.47;2.60;;;;;;;38.56;16.87;98918.78;5035094;28;20036;-78
2022/06/17 08:54:56;;;;;;;6.70;2.17;;;;;;;38.19;15.99;98914.97;5034864;28;20132;-78
2022/06/17 08:57:47;;;;;;;3.50;1.75;;;;;;;37.29;17.37;98915.56;5034344;28;20568;-78
2022/06/17 09:00:20;;;;;;;8.90;2.60;;;;;;;37.26;19.50;98920.78;5035757;28;20065;-79
2022/06/17 09:03:10;;;;;;;5.55;2.42;;;;;;;37.17;19.98;98917.81;5018456;28;20485;-77
2022/06/17 09:05:42;;;;;;;4.22;1.60;;;;;;;37.03;17.68;98914.16;5034488;28;20534;-79
2022/06/17 09:08:29;;;;;;;7.60;2.50;;;;;;;36.70;18.94;98906.53;5035600;28;20478;-78
2022/06/17 09:11:06;;;;;;;3.75;1.50;;;;;;;36.65;18.12;98914.75;5034177;28;20026;-77
2022/06/17 09:13:46;;;;;;;3.78;1.13;;;;;;;36.32;18.09;98913.66;5035678;28;20511;-78
2022/06/17 09:16:33;;;;;;;5.35;1.25;;;;;;;36.28;18.92;98918.03;5035310;28;20034;-77
2022/06/17 09:19:02;;;;;;;5.05;1.45;;;;;;;36.38;19.08;98921.47;5020841;28;20480;-77
2022/06/17 09:21:49;;;;;;;4.35;1.50;;;;;;;36.42;20.78;98919.03;5017932;28;20105;-79
2022/06/17 09:24:24;;;;;;;4.43;1.60;;;;;;;36.35;21.20;98913.09;5019741;28;20103;-78
2022/06/17 09:27:02;;;;;;;5.30;1.45;;;;;;;36.23;20.80;98910.72;5011896;28;20076;-79
2022/06/17 09:29:50;;;;;;;4.70;1.63;;;;;;;36.00;20.70;98901.34;5033952;28;20053;-79
2022/06/17 09:32:22;;;;;;;5.38;1.50;;;;;;;35.37;20.26;98912.72;5018496;28;20477;-80
2022/06/17 09:35:12;;;;;;;5.90;1.55;;;;;;;35.24;21.89;98908.66;5017628;28;20029;-77
2022/06/17 09:37:45;;;;;;;3.15;1.40;;;;;;;35.28;22.23;98901.63;5021675;28;20100;-81
2022/06/17 09:40:19;;;;;;;6.60;1.40;;;;;;;35.34;22.32;98905.94;5051300;28;20499;-82
2022/06/17 09:43:03;;;;;;;4.10;1.45;;;;;;;35.22;20.40;98905.41;5019809;28;20083;-83
2022/06/17 09:45:50;;;;;;;3.63;1.10;;;;;;;35.09;20.48;98904.91;5035695;28;20484;-82
2022/06/17 09:48:37;;;;;;;4.68;1.10;;;;;;;34.83;20.31;98895.19;5035614;28;20033;-81
2022/06/17 09:51:35;;;;;;;3.13;1.10;;;;;;;34.78;20.65;98899.50;5035285;28;20021;-83
2022/06/17 09:54:05;;;;;;;1.73;0.90;;;;;;;34.65;20.12;98893.78;5033713;28;20184;-81
2022/06/17 09:56:39;;;;;;;1.80;0.85;;;;;;;34.59;20.88;98895.72;5000598;28;20075;-81
2022/06/17 09:59:13;;;;;;;3.45;0.90;;;;;;;34.45;21.07;98890.00;5016470;28;20080;-82
2022/06/17 10:01:41;;;;;;;2.58;1.08;;;;;;;34.38;20.83;98886.75;5032816;28;20029;-82
2022/06/17 10:04:11;;;;;;;1.92;0.80;;;;;;;34.32;20.96;98880.53;5016180;28;20049;-83
2022/06/17 10:07:22;;;;;;;2.80;1.00;;;;;;;34.22;21.39;98886.72;5000313;28;20639;-81
2022/06/17 10:10:14;;;;;;;4.22;1.10;;;;;;;34.20;21.59;98871.81;4976860;28;20038;-81
2022/06/17 10:12:51;;;;;;;2.30;1.00;;;;;;;34.16;21.92;98865.28;4989793;28;20058;-82
2022/06/17 10:15:39;;;;;;;2.95;1.20;;;;;;;34.03;22.19;98866.63;4993109;28;20047;-82
2022/06/17 10:18:34;;;;;;;;;;;;;;;33.92;22.10;98852.25;4993473;28;20034;-81
2022/06/17 10:21:37;;;;;;;7.35;1.30;;;;;;;33.74;21.97;98860.91;4993737;28;20377;-81
2022/06/17 10:24:24;;;;;;;2.45;1.10;;;;;;;33.45;21.97;98855.91;4913562;29;20123;-81
2022/06/17 10:27:01;;;;;;;;;;;;;;;33.27;22.26;98860.69;4894006;29;20040;-81
2022/06/17 10:29:42;;;;;;;9.27;1.13;;;;;;;33.16;21.77;98865.19;4900475;29;19911;-82
2022/06/17 10:32:07;;;;;;;1.65;0.98;;;;;;;32.95;22.48;98864.25;4885148;29;20043;-82
2022/06/17 10:34:42;;;;;;;3.60;1.10;;;;;;;32.88;22.14;98855.56;4884485;29;20170;-82
2022/06/17 10:37:08;;;;;;;3.47;1.20;;;;;;;32.87;22.87;98859.34;4885048;29;20087;-80
2022/06/17 10:39:34;;;;;;;5.07;1.20;;;;;;;32.73;23.46;98856.25;4900102;29;20044;-82
2022/06/17 10:42:00;;;;;;;3.08;1.27;;;;;;;32.72;23.60;98853.81;4899753;29;20046;-80
2022/06/17 10:44:28;;;;;;;5.70;1.63;;;;;;;32.76;23.55;98857.66;4884291;29;20036;-81
2022/06/17 10:47:13;;;;;;;3.53;1.27;;;;;;;32.77;23.85;98851.97;4915361;28;20043;-81
2022/06/17 10:49:44;;;;;;;6.07;1.10;;;;;;;32.76;24.06;98844.94;4958985;28;20035;-81
2022/06/17 10:52:32;;;;;;;4.63;1.50;;;;;;;32.71;23.79;98836.00;4942260;28;20027;-82
2022/06/17 10:55:01;;;;;;;4.28;1.20;;;;;;;32.67;24.28;98849.19;4940624;28;20035;-80
2022/06/17 10:57:31;;;;;;;2.95;1.20;;;;;;;32.35;23.79;98839.19;4972784;28;20407;-83
2022/06/17 10:59:58;;;;;;;2.15;1.30;;;;;;;32.33;23.61;98838.66;4973372;28;20064;-82
2022/06/17 11:02:30;;;;;;;2.67;1.20;;;;;;;32.33;24.01;98837.84;5016044;28;20037;-81
2022/06/17 11:04:58;;;;;;;1.83;1.10;;;;;;;32.24;24.02;98834.78;5032092;28;20360;-81
2022/06/17 11:07:53;;;;;;;2.22;1.25;;;;;;;32.23;23.79;98833.97;5032044;28;20032;-80
2022/06/17 11:10:26;;;;;;;3.13;1.27;;;;;;;32.22;23.79;98828.84;4998191;28;20037;-81
2022/06/17 11:12:56;;;;;;;2.92;1.50;;;;;;;32.19;24.37;98822.06;4999380;28;20034;-79
2022/06/17 11:15:44;;;;;;;2.75;1.38;;;;;;;32.14;24.43;98826.59;5014935;28;20107;-78
2022/06/17 11:18:17;;;;;;;6.03;1.40;;;;;;;32.14;24.38;98826.59;4998250;28;20428;-79
2022/06/17 11:21:01;;;;;;;3.67;1.20;;;;;;;32.12;24.56;98820.63;4998625;28;20041;-79
2022/06/17 11:23:38;;;;;;;2.05;1.20;;;;;;;32.12;24.86;98818.75;4997877;28;20057;-79
2022/06/17 11:26:13;;;;;;;2.35;1.30;;;;;;;32.09;24.74;98809.28;4996353;28;20499;-82
2022/06/17 11:28:42;;;;;;;2.40;1.17;;;;;;;32.10;24.66;98807.38;5011368;28;20087;-78
2022/06/17 11:31:20;;;;;;;3.38;1.40;;;;;;;32.09;24.42;98806.59;4962282;28;20129;-78
2022/06/17 11:33:54;;;;;;;3.45;1.70;;;;;;;32.06;24.44;98801.66;4994609;28;20046;-78
2022/06/17 11:36:20;;;;;;;3.70;1.30;;;;;;;32.06;24.46;98801.66;5011213;28;20099;-78
2022/06/17 11:38:46;;;;;;;3.42;1.35;;;;;;;32.04;25.02;98800.28;4994719;28;20575;-79
2022/06/17 11:41:24;;;;;;;4.65;1.50;;;;;;;32.00;24.81;98805.38;4994830;28;20053;-77
2022/06/17 11:43:50;;;;;;;5.25;1.38;;;;;;;31.98;24.73;98793.22;4979029;28;20048;-77
2022/06/17 11:46:28;;;;;;;2.78;1.08;;;;;;;31.96;24.85;98798.88;4987863;28;20440;-79
2022/06/17 11:49:06;;;;;;;6.45;1.35;;;;;;;31.90;24.69;98800.72;5016591;28;20029;-78
2022/06/17 11:51:46;;;;;;;4.07;1.60;;;;;;;31.85;24.22;98795.28;5015087;28;20025;-80
2022/06/17 11:54:24;;;;;;;3.10;1.38;;;;;;;31.84;24.76;98792.81;5016140;28;20037;-78
2022/06/17 11:56:49;;;;;;;3.67;1.33;;;;;;;31.71;25.06;98784.06;5030979;28;20116;-78
2022/06/17 11:59:19;;;;;;;3.15;1.58;;;;;;;31.70;25.03;98793.22;5015182;28;20548;-78
2022/06/17 12:01:48;;;;;;;2.92;1.33;;;;;;;31.67;24.46;98785.63;5031440;28;20033;-79